• Join FlightAware (Why Join?)
  • Login
  • US Flag 
04:40AM EST


 

Airport Tracker/Info


-or-


 

Live Flight TrackerFlight Track Log ✈ N3984W ✈ 03-May-2012 ✈ KHND - KEGE

Flight Track Log - Related Links

Times and Time Zones

All times are in EDT time to prevent confusion due to time zone crossing. See the N3984W flight status page for this flight to view local times or setup timezone preferences in your user account.

Time Position Orientation Groundspeed Altitude Reporting Facility
EDT Latitude Longitude Course Direction KTS MPH feet Rate Location/Type
10:44AM 36.3056 -114.2144 60° Northeast 200 230 15,000  Level Los Angeles Center
10:45AM 36.3317 -114.1572 71° East 188 216 15,700 780 Climbing Los Angeles Center
10:46AM 36.3494 -114.0922 71° East 182 209 16,600 780 Climbing Los Angeles Center
10:47AM 36.3672 -114.0297 71° East 182 209 17,300 840 Climbing Los Angeles Center
10:48AM 36.3847 -113.9650 75° East 188 216 18,300 900 Climbing Los Angeles Center
10:49AM 36.3983 -113.9000 72° East 188 216 19,100 840 Climbing Los Angeles Center
10:50AM 36.4158 -113.8325 59° Northeast 188 216 20,000 840 Climbing Los Angeles Center
10:51AM 36.4419 -113.7775 55° Northeast 188 216 20,800 720 Climbing Los Angeles Center
10:52AM 36.4742 -113.7197 58° Northeast 188 216 21,500 660 Climbing Los Angeles Center
10:53AM 36.5061 -113.6569 57° Northeast 194 223 22,200 600 Climbing Los Angeles Center
10:54AM 36.5364 -113.5989 57° Northeast 194 223 22,800 600 Climbing Los Angeles Center
10:55AM 36.5664 -113.5411 58° Northeast 194 223 23,500 600 Climbing Los Angeles Center
10:56AM 36.5964 -113.4808 57° Northeast 194 223 24,100 540 Climbing Los Angeles Center
10:57AM 36.6225 -113.4308 57° Northeast 189 217 24,600 360 Climbing Los Angeles Center
10:58AM 36.6525 -113.3728 58° Northeast 189 217 24,900 180 Climbing Los Angeles Center
10:59AM 36.6844 -113.3094 58° Northeast 195 224 25,000  Climbing Los Angeles Center
11:00AM 36.7183 -113.2408 56° Northeast 207 238 25,000  Level Los Angeles Center
11:01AM 36.7542 -113.1747 58° Northeast 219 252 25,000  Level Los Angeles Center
11:02AM 36.7881 -113.1061 57° Northeast 224 258 25,000 -60 Level Los Angeles Center
11:03AM 36.8258 -113.0322 58° Northeast 224 258 24,900  Descending Los Angeles Center
11:04AM 36.8614 -112.9606 59° Northeast 224 258 25,000  Climbing Los Angeles Center
11:05AM 36.8950 -112.8917 57° Northeast 224 258 25,000  Level Los Angeles Center
11:06AM 36.9308 -112.8228 59° Northeast 229 264 25,000  Level Los Angeles Center
11:07AM 36.9644 -112.7539 56° Northeast 229 264 25,000  Level Los Angeles Center
11:08AM 37.0019 -112.6847 60° Northeast 229 264 25,000  Level Los Angeles Center
11:09AM 37.0356 -112.6131 58° Northeast 229 264 25,000  Level Los Angeles Center
11:10AM 37.0631 -112.5569 59° Northeast 229 264 25,000  Level Los Angeles Center
11:12AM 37.1269 -112.4258 59° Northeast 237 273 25,000  Level Salt Lake Center
11:13AM 37.1619 -112.3539 58° Northeast 238 274 25,000  Level Salt Lake Center
11:14AM 37.1975 -112.2828 58° Northeast 238 274 25,000  Level Salt Lake Center
11:15AM 37.2333 -112.2106 59° Northeast 239 275 25,000  Level Salt Lake Center
11:16AM 37.2686 -112.1375 58° Northeast 240 276 25,000 -60 Level Salt Lake Center
11:17AM 37.3047 -112.0650 58° Northeast 241 277 24,900  Descending Salt Lake Center
11:18AM 37.3411 -111.9911 59° Northeast 244 281 25,000  Climbing Salt Lake Center
11:19AM 37.3847 -111.9006 58° Northeast 248 285 24,900  Descending Salt Lake Center
11:20AM 37.4219 -111.8244 59° Northeast 251 289 25,000  Climbing Salt Lake Center
11:21AM 37.4581 -111.7483 58° Northeast 251 289 25,000 -60 Level Salt Lake Center
11:22AM 37.4950 -111.6728 59° Northeast 249 287 24,900 -60 Descending Salt Lake Center
11:23AM 37.5306 -111.5981 58° Northeast 247 284 24,900  Level Salt Lake Center
11:24AM 37.5675 -111.5222 59° Northeast 248 285 24,900  Level Salt Lake Center
11:25AM 37.6042 -111.4456 58° Northeast 250 288 24,900  Level Salt Lake Center
11:26AM 37.6414 -111.3700 59° Northeast 251 289 25,000  Climbing Salt Lake Center
11:28AM 37.6772 -111.2933 59° Northeast 250 288 24,900 -60 Descending Salt Lake Center
11:29AM 37.7211 -111.2022 59° Northeast 250 288 24,900  Level Salt Lake Center
11:30AM 37.7567 -111.1278 59° Northeast 247 284 24,900  Level Salt Lake Center
11:31AM 37.7931 -111.0519 58° Northeast 247 284 24,900  Level Salt Lake Center
11:32AM 37.8297 -110.9764 60° Northeast 248 285 24,900  Level Salt Lake Center
11:33AM 37.8647 -110.8997 59° Northeast 249 287 24,900  Level Salt Lake Center
11:34AM 37.9011 -110.8225 58° Northeast 250 288 24,900  Level Salt Lake Center
11:35AM 37.9419 -110.7392 60° Northeast 251 289 25,000  Climbing Salt Lake Center
11:36AM 37.9747 -110.6669 59° Northeast 249 287 24,900 -60 Descending Salt Lake Center
11:37AM 38.0147 -110.5836 59° Northeast 248 285 24,900  Level Salt Lake Center
11:38AM 38.0500 -110.5100 60° Northeast 251 289 24,900  Level Salt Lake Center
11:39AM 38.0908 -110.4217 57° Northeast 257 296 24,900  Level Salt Lake Center
11:40AM 38.1219 -110.3597 58° Northeast 254 292 25,000  Climbing Denver Center
11:41AM 38.1556 -110.2903 59° Northeast 254 292 24,900  Descending Denver Center
11:42AM 38.1958 -110.2056 60° Northeast 254 292 25,000  Climbing Denver Center
11:43AM 38.2319 -110.1253 59° Northeast 254 292 24,900 -60 Descending Denver Center
11:44AM 38.2678 -110.0478 59° Northeast 254 292 24,900  Level Denver Center
11:45AM 38.3011 -109.9781 60° Northeast 254 292 25,000  Climbing Denver Center
11:46AM 38.3414 -109.8903 59° Northeast 254 292 24,900 -60 Descending Denver Center
11:47AM 38.3769 -109.8150 59° Northeast 254 292 24,900  Level Denver Center
11:48AM 38.4103 -109.7450 61° Northeast 254 292 24,900  Level Denver Center
11:49AM 38.4458 -109.6644 60° Northeast 254 292 24,900  Level Denver Center
11:49AM 38.4692 -109.6122 59° Northeast 259 298 24,900  Level Salt Lake Center
11:50AM 38.5044 -109.5372 60° Northeast 259 298 24,900  Level Salt Lake Center
11:51AM 38.5447 -109.4483 60° Northeast 259 298 24,900  Level Salt Lake Center
11:52AM 38.5792 -109.3733 60° Northeast 258 297 24,900  Level Salt Lake Center
11:53AM 38.6133 -109.2975 60° Northeast 257 296 24,900  Level Salt Lake Center
11:54AM 38.6544 -109.2075 60° Northeast 259 298 24,900  Level Salt Lake Center
11:56AM 38.6978 -109.1119 61° Northeast 259 298 24,900  Level Denver Center
11:57AM 38.7372 -109.0203 59° Northeast 259 298 24,900  Level Denver Center
11:58AM 38.7744 -108.9417 59° Northeast 259 298 24,900  Level Denver Center
11:59AM 38.8117 -108.8606 61° Northeast 259 298 24,900  Level Denver Center
12:00PM 38.8422 -108.7894 60° Northeast 259 298 24,900  Level Denver Center
12:01PM 38.8817 -108.7003 59° Northeast 259 298 24,900  Level Denver Center
12:02PM 38.9186 -108.6214 61° Northeast 259 298 24,900 -60 Level Denver Center
12:03PM 38.9533 -108.5422 58° Northeast 259 298 24,800 -60 Descending Denver Center
12:04PM 38.9881 -108.4711 49° Northeast 259 298 24,800 -300 Level Denver Center
12:05PM 39.0417 -108.3925 40° Northeast 264 304 24,300 -540 Descending Denver Center
12:06PM 39.1011 -108.3272 46° Northeast 264 304 23,800 -600 Descending Denver Center
12:07PM 39.1458 -108.2669 50° Northeast 264 304 23,200 -540 Descending Denver Center
12:08PM 39.1950 -108.1906 49° Northeast 269 310 22,800 -600 Descending Denver Center
12:09PM 39.2483 -108.1114 51° Northeast 264 304 22,000 -720 Descending Denver Center
12:10PM 39.2950 -108.0375 50° Northeast 264 304 21,400 -600 Descending Denver Center
12:11PM 39.3378 -107.9714 45° Northeast 264 304 20,800 -780 Descending Denver Center
12:12PM 39.3950 -107.8972 46° Northeast 264 304 19,900 -900 Descending Denver Center
12:13PM 39.4458 -107.8283 47° Northeast 264 304 19,100 -780 Descending Denver Center
12:14PM 39.4903 -107.7675 47° Northeast 264 304 18,400 -660 Descending Denver Center
12:15PM 39.5392 -107.6983 63° Northeast 264 304 17,800 -720 Descending Denver Center
12:16PM 39.5733 -107.6100 63° Northeast 257 296 17,000 -840 Descending Denver Center